createdAt,value
2024-04-24T00:01:26.586Z,95891.34
2024-04-24T00:03:53.508Z,95962.34
2024-04-24T00:06:20.455Z,95884.19
2024-04-24T00:08:47.267Z,95937.81
2024-04-24T00:11:19.799Z,95944.97
2024-04-24T00:13:46.762Z,95934.19
2024-04-24T00:16:13.577Z,95924.34
2024-04-24T00:18:42.371Z,95923.50
2024-04-24T00:21:11.643Z,95911.59
2024-04-24T00:23:38.476Z,95888.59
2024-04-24T00:26:05.390Z,95909.13
2024-04-24T00:28:32.251Z,95898.84
2024-04-24T00:31:07.184Z,95914.06
2024-04-24T00:33:34.128Z,95914.84
2024-04-24T00:36:01.022Z,95927.19
2024-04-24T00:38:28.024Z,95932.34
2024-04-24T00:40:54.875Z,95926.03
2024-04-24T00:43:21.693Z,95932.44
2024-04-24T00:45:48.527Z,95925.03
2024-04-24T00:48:16.428Z,95930.09
2024-04-24T00:50:44.309Z,95874.06
2024-04-24T00:53:11.236Z,95876.34
2024-04-24T00:55:38.172Z,95919.75
2024-04-24T00:58:06.117Z,95912.69
2024-04-24T01:00:33.359Z,95923.38
2024-04-24T01:03:01.225Z,95873.94
2024-04-24T01:05:28.126Z,95916.19
2024-04-24T01:07:55.088Z,95921.34
2024-04-24T01:10:22.023Z,95911.84
2024-04-24T01:12:49.939Z,95924.09
2024-04-24T01:15:19.604Z,95928.03
2024-04-24T01:17:50.495Z,95865.75
2024-04-24T01:20:21.779Z,95833.72
2024-04-24T01:23:07.695Z,95892.75
2024-04-24T01:25:49.098Z,95860.53
2024-04-24T01:28:16.224Z,95877.19
2024-04-24T01:30:43.027Z,95858.22
2024-04-24T01:33:09.926Z,95910.31
2024-04-24T01:35:36.908Z,95912.38
2024-04-24T01:38:04.008Z,95847.97
2024-04-24T01:40:30.870Z,95839.34
2024-04-24T01:42:57.708Z,95893.78
2024-04-24T01:45:24.605Z,95896.09
2024-04-24T01:47:51.672Z,95859.03
2024-04-24T01:50:18.567Z,95884.28
2024-04-24T01:52:45.461Z,95799.06
2024-04-24T01:55:12.412Z,95836.94
2024-04-24T01:57:39.213Z,95870.06
2024-04-24T02:00:06.631Z,95889.41
2024-04-24T02:02:33.575Z,95901.81
2024-04-24T02:05:00.474Z,95897.06
2024-04-24T02:07:27.353Z,95891.22
2024-04-24T02:09:54.205Z,95852.97
2024-04-24T02:12:21.212Z,95882.16
2024-04-24T02:14:48.103Z,95829.31
2024-04-24T02:17:15.016Z,95856.88
2024-04-24T02:19:43.456Z,95804.00
2024-04-24T02:22:10.825Z,95810.28
2024-04-24T02:24:56.410Z,95854.88
2024-04-24T02:27:23.248Z,95860.06
2024-04-24T02:29:55.991Z,95864.00
2024-04-24T02:32:24.031Z,95861.63
2024-04-24T02:34:51.144Z,95859.25
2024-04-24T02:37:18.036Z,95860.88
2024-04-24T02:39:44.943Z,95844.25
2024-04-24T02:42:11.882Z,95856.97
2024-04-24T02:44:38.705Z,95785.88
2024-04-24T02:47:05.663Z,95805.25
2024-04-24T02:49:32.492Z,95815.09
2024-04-24T02:51:59.327Z,95809.22
2024-04-24T02:54:26.153Z,95870.88
2024-04-24T02:56:53.648Z,95870.47
2024-04-24T02:59:21.106Z,95872.06
2024-04-24T03:01:48.193Z,95872.06
2024-04-24T03:04:15.129Z,95870.09
2024-04-24T03:06:45.634Z,95871.66
2024-04-24T03:09:13.037Z,95884.75
2024-04-24T03:11:40.747Z,95874.47
2024-04-24T03:14:08.288Z,95881.19
2024-04-24T03:16:35.595Z,95881.59
2024-04-24T03:19:02.611Z,95869.78
2024-04-24T03:21:29.544Z,95891.91
2024-04-24T03:23:56.494Z,95901.38
2024-04-24T03:26:23.462Z,95898.59
2024-04-24T03:28:50.308Z,95856.31
2024-04-24T03:31:17.171Z,95891.78
2024-04-24T03:33:44.081Z,95893.34
2024-04-24T03:36:10.937Z,95891.38
2024-04-24T03:38:37.733Z,95841.28
2024-04-24T03:41:04.765Z,95896.91
2024-04-24T03:43:31.968Z,95903.63
2024-04-24T03:45:58.843Z,95898.81
2024-04-24T03:48:25.961Z,95909.16
2024-04-24T03:50:52.869Z,95903.56
2024-04-24T03:53:19.872Z,95903.91
2024-04-24T03:55:46.782Z,95901.94
2024-04-24T03:58:13.650Z,95912.28
2024-04-24T04:00:40.601Z,95903.53
2024-04-24T04:03:10.719Z,95894.09
2024-04-24T04:05:38.188Z,95868.47
2024-04-24T04:08:05.484Z,95910.72
2024-04-24T04:10:32.315Z,95834.22
2024-04-24T04:12:59.253Z,95834.16
2024-04-24T04:15:26.153Z,95920.25
2024-04-24T04:17:53.286Z,95904.41
2024-04-24T04:20:20.368Z,95878.31
2024-04-24T04:22:47.409Z,95906.31
2024-04-24T04:25:14.404Z,95909.50
2024-04-24T04:27:41.405Z,95858.50
2024-04-24T04:30:08.819Z,95919.78
2024-04-24T04:32:35.798Z,95923.28
2024-04-24T04:35:02.795Z,95931.94
2024-04-24T04:37:29.742Z,95918.47
2024-04-24T04:39:56.544Z,95863.09
2024-04-24T04:42:23.351Z,95903.28
2024-04-24T04:44:50.185Z,95917.81
2024-04-24T04:47:17.141Z,95819.50
2024-04-24T04:49:43.999Z,95913.72
2024-04-24T04:52:10.821Z,95906.78
2024-04-24T04:54:37.610Z,95901.03
2024-04-24T04:57:04.465Z,95901.31
2024-04-24T04:59:31.304Z,95904.75
2024-04-24T05:01:59.702Z,95901.41
2024-04-24T05:04:26.982Z,95841.38
2024-04-24T05:06:53.871Z,95900.81
2024-04-24T05:09:20.733Z,95886.31
2024-04-24T05:11:50.376Z,95898.88
2024-04-24T05:14:17.478Z,95903.94
2024-04-24T05:16:44.509Z,95899.66
2024-04-24T05:19:11.391Z,95873.53
2024-04-24T05:21:38.223Z,95888.16
2024-04-24T05:24:05.468Z,95880.84
2024-04-24T05:26:50.741Z,95891.94
2024-04-24T05:29:17.562Z,95902.69
2024-04-24T05:31:44.449Z,95873.41
2024-04-24T05:34:11.340Z,95889.78
2024-04-24T05:36:38.206Z,95892.81
2024-04-24T05:39:05.026Z,95622.06
2024-04-24T05:41:31.852Z,95885.56
2024-04-24T05:43:58.768Z,95892.59
2024-04-24T05:46:25.603Z,95886.41
2024-04-24T05:48:52.618Z,95893.69
2024-04-24T05:51:19.515Z,95896.28
2024-04-24T05:53:46.403Z,95897.78
2024-04-24T05:56:13.361Z,95894.22
2024-04-24T05:58:40.211Z,95892.13
2024-04-24T06:01:07.044Z,95894.25
2024-04-24T06:03:33.872Z,95890.56
2024-04-24T06:06:00.688Z,95888.41
2024-04-24T06:08:27.545Z,95617.06
2024-04-24T06:10:54.507Z,95881.03
2024-04-24T06:13:21.600Z,95886.38
2024-04-24T06:15:48.438Z,95884.31
2024-04-24T06:18:15.375Z,95894.25
2024-04-24T06:20:42.259Z,95878.81
2024-04-24T06:23:09.194Z,95864.66
2024-04-24T06:25:36.338Z,95886.00
2024-04-24T06:28:03.230Z,95842.38
2024-04-24T06:30:30.203Z,95886.84
2024-04-24T06:32:57.228Z,95861.41
2024-04-24T06:35:27.166Z,95888.41
2024-04-24T06:37:55.105Z,95828.25
2024-04-24T06:40:22.047Z,95830.34
2024-04-24T06:42:52.102Z,95885.19
2024-04-24T06:45:19.233Z,95838.16
2024-04-24T06:47:46.094Z,95887.34
2024-04-24T06:50:13.069Z,95853.09
2024-04-24T06:52:39.987Z,95858.22
2024-04-24T06:55:07.032Z,95829.00
2024-04-24T06:57:33.848Z,95858.22
2024-04-24T07:00:00.695Z,95847.81
2024-04-24T07:02:27.551Z,95886.09
2024-04-24T07:04:54.406Z,95885.59
2024-04-24T07:07:23.050Z,95871.69
2024-04-24T07:09:50.496Z,95875.38
2024-04-24T07:12:17.402Z,95873.28
2024-04-24T07:14:44.245Z,95881.66
2024-04-24T07:17:11.144Z,95874.84
2024-04-24T07:19:38.090Z,95875.34
2024-04-24T07:22:05.539Z,95875.34
2024-04-24T07:24:32.413Z,95858.91
2024-04-24T07:26:59.235Z,95873.84
2024-04-24T07:29:26.513Z,95878.69
2024-04-24T07:31:53.432Z,95882.34
2024-04-24T07:34:20.490Z,95887.25
2024-04-24T07:36:47.353Z,95797.69
2024-04-24T07:39:14.142Z,95864.09
2024-04-24T07:41:43.588Z,95877.69
2024-04-24T07:44:10.888Z,95880.09
2024-04-24T07:46:37.876Z,95880.31
2024-04-24T07:49:04.760Z,95878.84
2024-04-24T07:51:31.713Z,95879.66
2024-04-24T07:53:58.586Z,95891.34
2024-04-24T07:56:25.638Z,95880.66
2024-04-24T07:58:52.715Z,95880.34
2024-04-24T08:01:23.482Z,95894.13
2024-04-24T08:03:50.450Z,95895.91
2024-04-24T08:06:17.468Z,95877.09
2024-04-24T08:08:44.400Z,95898.13
2024-04-24T08:11:11.554Z,95877.53
2024-04-24T08:13:38.509Z,95656.09
2024-04-24T08:16:05.629Z,95904.00
2024-04-24T08:18:34.185Z,95889.22
2024-04-24T08:21:02.430Z,95880.97
2024-04-24T08:23:29.340Z,95807.69
2024-04-24T08:25:56.566Z,95842.66
2024-04-24T08:28:33.237Z,95710.63
2024-04-24T08:31:07.240Z,95888.84
2024-04-24T08:33:35.100Z,95737.81
2024-04-24T08:36:13.608Z,95812.94
2024-04-24T08:38:41.264Z,95840.44
2024-04-24T08:41:12.428Z,95886.44
2024-04-24T08:43:44.099Z,95820.84
2024-04-24T08:46:12.222Z,95876.03
2024-04-24T08:48:44.129Z,95883.09
2024-04-24T08:51:12.354Z,95880.00
2024-04-24T08:54:05.884Z,95871.06
2024-04-24T08:56:38.727Z,95861.56
2024-04-24T08:59:12.872Z,95839.69
2024-04-24T09:01:44.773Z,95821.50
2024-04-24T09:04:14.363Z,95820.28
2024-04-24T09:06:41.827Z,95843.41
2024-04-24T09:09:09.097Z,95853.13
2024-04-24T09:11:36.069Z,95854.47
2024-04-24T09:14:04.212Z,95809.59
2024-04-24T09:16:35.727Z,95875.97
2024-04-24T09:19:04.489Z,95857.09
2024-04-24T09:21:34.884Z,95807.81
2024-04-24T09:24:01.758Z,95757.75
2024-04-24T09:26:29.195Z,95775.91
2024-04-24T09:28:56.248Z,95772.78
2024-04-24T09:31:23.791Z,95846.63
2024-04-24T09:33:51.388Z,95815.16
2024-04-24T09:36:18.434Z,95809.34
2024-04-24T09:38:46.489Z,95777.06
2024-04-24T09:41:13.787Z,95829.50
2024-04-24T09:43:40.826Z,95807.50
2024-04-24T09:46:07.773Z,95777.75
2024-04-24T09:48:35.599Z,95835.47
2024-04-24T09:51:02.601Z,95830.94
2024-04-24T09:53:29.616Z,95800.53
2024-04-24T09:56:17.360Z,95764.16
2024-04-24T09:58:44.939Z,95768.25
2024-04-24T10:01:13.990Z,95709.25
2024-04-24T10:03:42.274Z,95820.28
2024-04-24T10:06:12.609Z,95749.41
2024-04-24T10:08:41.539Z,95813.34
2024-04-24T10:11:12.106Z,95756.72
2024-04-24T10:13:41.869Z,95739.44
2024-04-24T10:16:09.515Z,95763.59
2024-04-24T10:18:37.190Z,95811.84
2024-04-24T10:21:05.661Z,95789.38
2024-04-24T10:23:33.278Z,95762.91
2024-04-24T10:26:01.122Z,95775.16
2024-04-24T10:28:28.870Z,95815.63
2024-04-24T10:30:58.262Z,95818.25
2024-04-24T10:33:26.908Z,95789.19
2024-04-24T10:35:54.372Z,95817.66
2024-04-24T10:38:21.240Z,95769.22
2024-04-24T10:40:52.980Z,95811.41
2024-04-24T10:43:22.665Z,95781.66
2024-04-24T10:45:54.193Z,95804.19
2024-04-24T10:48:21.208Z,95798.19
2024-04-24T10:50:54.684Z,95800.44
2024-04-24T10:53:24.616Z,95781.63
2024-04-24T10:55:59.703Z,95791.50
2024-04-24T10:58:26.710Z,95784.94
2024-04-24T11:00:53.583Z,95744.81
2024-04-24T11:03:25.599Z,95772.50
2024-04-24T11:05:52.980Z,95714.06
2024-04-24T11:08:21.167Z,95692.66
2024-04-24T11:10:54.843Z,95778.53
2024-04-24T11:13:21.905Z,95777.06
2024-04-24T11:15:58.147Z,95786.41
2024-04-24T11:18:29.536Z,95776.38
2024-04-24T11:20:57.449Z,95729.44
2024-04-24T11:23:24.419Z,95745.22
2024-04-24T11:25:58.562Z,95707.06
2024-04-24T11:28:28.112Z,95751.78
2024-04-24T11:30:55.312Z,95750.91
2024-04-24T11:33:24.114Z,95820.97
2024-04-24T11:35:53.093Z,95736.16
2024-04-24T11:38:20.794Z,95782.09
2024-04-24T11:40:48.099Z,95755.94
2024-04-24T11:43:15.964Z,95755.53
2024-04-24T11:45:42.935Z,95774.28
2024-04-24T11:48:10.331Z,95720.72
2024-04-24T11:50:37.629Z,95750.34
2024-04-24T11:53:04.913Z,95772.34
2024-04-24T11:55:35.478Z,95687.72
2024-04-24T11:58:09.751Z,95766.75
2024-04-24T12:00:40.441Z,95718.41
2024-04-24T12:03:07.811Z,95729.94
2024-04-24T12:05:34.863Z,95410.63
2024-04-24T12:08:01.717Z,95767.91
2024-04-24T12:10:28.650Z,95760.00
2024-04-24T12:12:55.690Z,95761.69
2024-04-24T12:15:22.697Z,95708.19
2024-04-24T12:17:49.800Z,95693.28
2024-04-24T12:20:16.715Z,95745.22
2024-04-24T12:22:43.675Z,95695.81
2024-04-24T12:25:10.618Z,95754.56
2024-04-24T12:27:37.566Z,95751.28
2024-04-24T12:30:06.007Z,95736.94
2024-04-24T12:32:34.276Z,95677.22
2024-04-24T12:35:01.336Z,95735.00
2024-04-24T12:37:32.411Z,95732.75
2024-04-24T12:39:59.308Z,95751.94
2024-04-24T12:42:26.117Z,95704.56
2024-04-24T12:44:52.959Z,95715.47
2024-04-24T12:47:19.911Z,95738.00
2024-04-24T12:49:46.872Z,95525.50
2024-04-24T12:52:13.714Z,95710.63
2024-04-24T12:54:40.540Z,95740.59
2024-04-24T12:57:07.547Z,95771.94
2024-04-24T12:59:34.432Z,95727.25
2024-04-24T13:02:01.390Z,95732.06
2024-04-24T13:04:28.423Z,95699.22
2024-04-24T13:06:55.327Z,95720.34
2024-04-24T13:09:24.580Z,95707.81
2024-04-24T13:11:51.842Z,95716.94
2024-04-24T13:14:18.780Z,95651.97
2024-04-24T13:16:47.278Z,95701.06
2024-04-24T13:19:14.278Z,95681.31
2024-04-24T13:21:41.215Z,95713.13
2024-04-24T13:24:09.009Z,95609.22
2024-04-24T13:26:36.149Z,95678.16
2024-04-24T13:29:03.278Z,95600.44
2024-04-24T13:31:30.254Z,95687.81
2024-04-24T13:33:57.256Z,95672.88
2024-04-24T13:36:24.181Z,95665.91
2024-04-24T13:38:53.662Z,95645.72
2024-04-24T13:41:23.822Z,95664.19
2024-04-24T13:43:53.588Z,95691.13
2024-04-24T13:46:20.480Z,95674.59
2024-04-24T13:48:48.073Z,95689.75
2024-04-24T13:51:15.022Z,95631.09
2024-04-24T13:53:41.847Z,95677.63
2024-04-24T13:56:09.075Z,95676.75
2024-04-24T13:58:38.091Z,95626.78
2024-04-24T14:01:05.238Z,95679.94
2024-04-24T14:03:32.409Z,95671.78
2024-04-24T14:06:01.273Z,95670.38
2024-04-24T14:08:28.384Z,95638.88
2024-04-24T14:10:55.418Z,95581.97
2024-04-24T14:13:22.373Z,95679.00
2024-04-24T14:15:49.158Z,95674.25
2024-04-24T14:18:16.040Z,95671.78
2024-04-24T14:20:42.899Z,95683.47
2024-04-24T14:23:09.875Z,95673.72
2024-04-24T14:25:36.702Z,95633.91
2024-04-24T14:28:03.764Z,95672.75
2024-04-24T14:30:30.676Z,95671.09
2024-04-24T14:32:57.738Z,95668.13
2024-04-24T14:35:25.401Z,95663.81
2024-04-24T14:37:52.470Z,95667.25
2024-04-24T14:40:19.462Z,95664.91
2024-04-24T14:42:46.756Z,95667.66
2024-04-24T14:45:14.561Z,95665.63
2024-04-24T14:47:41.677Z,95659.47
2024-04-24T14:50:09.173Z,95657.69
2024-04-24T14:52:36.088Z,95657.09
2024-04-24T14:55:02.980Z,95624.03
2024-04-24T14:57:29.925Z,95593.53
2024-04-24T14:59:56.791Z,95623.97
2024-04-24T15:02:25.340Z,95659.72
2024-04-24T15:04:52.390Z,95668.56
2024-04-24T15:07:19.572Z,95657.72
2024-04-24T15:09:46.446Z,95662.34
2024-04-24T15:12:15.184Z,95659.25
2024-04-24T15:14:42.278Z,95657.31
2024-04-24T15:17:09.289Z,95660.13
2024-04-24T15:19:36.873Z,95601.75
2024-04-24T15:22:04.430Z,95654.53
2024-04-24T15:24:31.237Z,95661.75
2024-04-24T15:26:58.102Z,95648.50
2024-04-24T15:29:25.010Z,95657.72
2024-04-24T15:31:51.900Z,95648.16
2024-04-24T15:34:18.743Z,95654.19
2024-04-24T15:36:47.045Z,95600.59
2024-04-24T15:39:13.911Z,95604.59
2024-04-24T15:41:42.522Z,95661.47
2024-04-24T15:44:09.435Z,95658.66
2024-04-24T15:46:36.308Z,95653.56
2024-04-24T15:49:03.147Z,95662.28
2024-04-24T15:51:29.967Z,95664.22
2024-04-24T15:53:56.838Z,95665.84
2024-04-24T15:56:23.756Z,95654.06
2024-04-24T15:58:50.645Z,95671.56
2024-04-24T16:01:17.522Z,95677.22
2024-04-24T16:03:44.411Z,95624.56
2024-04-24T16:06:11.321Z,95666.56
2024-04-24T16:08:38.694Z,95660.75
2024-04-24T16:11:05.699Z,95665.00
2024-04-24T16:13:32.695Z,95656.25
2024-04-24T16:15:59.543Z,95677.69
2024-04-24T16:18:32.876Z,95641.16
2024-04-24T16:21:03.426Z,95629.28
2024-04-24T16:23:30.419Z,95668.06
2024-04-24T16:25:57.333Z,95674.34
2024-04-24T16:28:24.481Z,95593.50
2024-04-24T16:30:51.334Z,95593.81
2024-04-24T16:33:18.240Z,95677.56
2024-04-24T16:35:45.103Z,95686.38
2024-04-24T16:38:11.983Z,95685.56
2024-04-24T16:40:40.699Z,95679.53
2024-04-24T16:43:07.530Z,95681.44
2024-04-24T16:45:34.703Z,95660.19
2024-04-24T16:48:01.768Z,95684.88
2024-04-24T16:50:29.035Z,95690.19
2024-04-24T16:52:55.915Z,95693.94
2024-04-24T16:55:23.027Z,95693.03
2024-04-24T16:57:49.898Z,95704.28
2024-04-24T17:00:16.959Z,95699.84
2024-04-24T17:02:43.976Z,95703.22
2024-04-24T17:05:11.400Z,95711.38
2024-04-24T17:07:38.307Z,95702.59
2024-04-24T17:10:05.566Z,95703.84
2024-04-24T17:12:32.513Z,95687.88
2024-04-24T17:14:59.727Z,95695.28
2024-04-24T17:17:26.718Z,95685.13
2024-04-24T17:19:53.659Z,95680.91
2024-04-24T17:22:20.512Z,95709.09
2024-04-24T17:24:47.722Z,95709.09
2024-04-24T17:27:15.970Z,95673.06
2024-04-24T17:29:42.861Z,95670.91
2024-04-24T17:32:10.698Z,95708.78
2024-04-24T17:34:37.671Z,95674.81
2024-04-24T17:37:04.603Z,95713.44
2024-04-24T17:39:31.504Z,95718.13
2024-04-24T17:42:00.432Z,95713.44
2024-04-24T17:44:27.700Z,95721.53
2024-04-24T17:46:54.502Z,95725.59
2024-04-24T17:49:21.345Z,95724.69
2024-04-24T17:51:48.221Z,95709.81
2024-04-24T17:54:18.066Z,95726.66
2024-04-24T17:56:45.052Z,95703.88
2024-04-24T17:59:12.073Z,95722.75
2024-04-24T18:01:38.961Z,95716.13
2024-04-24T18:04:05.887Z,95727.38
2024-04-24T18:06:32.976Z,95733.78
2024-04-24T18:08:59.930Z,95739.47
2024-04-24T18:11:26.946Z,95742.59
2024-04-24T18:13:53.943Z,95740.69
2024-04-24T18:16:20.926Z,95698.69
2024-04-24T18:18:47.859Z,95744.44
2024-04-24T18:21:14.711Z,95697.28
2024-04-24T18:23:41.626Z,95688.41
2024-04-24T18:26:09.522Z,95738.50
2024-04-24T18:28:36.551Z,95753.91
2024-04-24T18:31:03.757Z,95752.44
2024-04-24T18:33:30.747Z,95745.81
2024-04-24T18:35:57.830Z,95725.16
2024-04-24T18:38:24.939Z,95743.25
2024-04-24T18:40:51.924Z,95765.13
2024-04-24T18:43:19.011Z,95765.31
2024-04-24T18:45:46.909Z,95769.50
2024-04-24T18:48:13.969Z,95810.66
2024-04-24T18:50:41.462Z,95775.28
2024-04-24T18:53:08.597Z,95744.75
2024-04-24T18:55:35.663Z,95745.28
2024-04-24T18:58:02.763Z,95755.03
2024-04-24T19:00:30.652Z,95776.84
2024-04-24T19:02:57.979Z,95771.78
2024-04-24T19:05:25.165Z,95782.56
2024-04-24T19:07:52.221Z,95782.00
2024-04-24T19:10:20.167Z,95780.66
2024-04-24T19:12:47.200Z,95775.94
2024-04-24T19:15:14.466Z,95769.44
2024-04-24T19:17:44.486Z,95796.13
2024-04-24T19:20:11.672Z,95744.81
2024-04-24T19:22:39.806Z,95786.91
2024-04-24T19:25:06.941Z,95788.28
2024-04-24T19:27:40.706Z,95773.94
2024-04-24T19:30:12.238Z,95781.78
2024-04-24T19:32:40.950Z,95773.25
2024-04-24T19:35:08.875Z,95789.72
2024-04-24T19:37:36.251Z,95786.72
2024-04-24T19:40:04.666Z,95793.13
2024-04-24T19:42:31.863Z,95758.47
2024-04-24T19:44:59.979Z,95731.25
2024-04-24T19:47:27.389Z,95761.50
2024-04-24T19:49:54.570Z,95800.38
2024-04-24T19:52:21.702Z,95788.16
2024-04-24T19:54:48.805Z,95792.88
2024-04-24T19:57:16.228Z,95792.53
2024-04-24T19:59:46.497Z,95796.56
2024-04-24T20:02:16.982Z,95725.34
2024-04-24T20:04:45.926Z,95797.66
2024-04-24T20:07:14.777Z,95800.81
2024-04-24T20:09:41.667Z,95739.75
2024-04-24T20:12:08.988Z,95745.09
2024-04-24T20:14:35.958Z,95784.81
2024-04-24T20:17:03.028Z,95786.47
2024-04-24T20:19:33.403Z,95786.59
2024-04-24T20:22:01.211Z,95790.72
2024-04-24T20:24:28.296Z,95742.16
2024-04-24T20:26:55.248Z,95798.19
2024-04-24T20:29:22.331Z,95786.31
2024-04-24T20:31:49.324Z,95803.69
2024-04-24T20:34:17.666Z,95801.22
2024-04-24T20:36:44.563Z,95803.50
2024-04-24T20:39:11.673Z,95796.00
2024-04-24T20:41:42.623Z,95805.94
2024-04-24T20:44:09.916Z,95795.94
2024-04-24T20:46:41.998Z,95805.34
2024-04-24T20:49:12.074Z,95805.53
2024-04-24T20:51:42.476Z,95744.13
2024-04-24T20:54:10.255Z,95745.09
2024-04-24T20:56:37.766Z,95800.16
2024-04-24T20:59:07.401Z,95792.09
2024-04-24T21:01:34.318Z,95785.72
2024-04-24T21:04:01.208Z,95800.44
2024-04-24T21:06:28.755Z,95736.91
2024-04-24T21:08:55.687Z,95746.66
2024-04-24T21:11:26.191Z,95788.84
2024-04-24T21:13:53.950Z,95796.69
2024-04-24T21:16:20.923Z,95783.84
2024-04-24T21:18:47.972Z,95776.63
2024-04-24T21:21:15.044Z,95724.97
2024-04-24T21:23:42.769Z,95773.16
2024-04-24T21:26:09.659Z,95778.34
2024-04-24T21:28:36.711Z,95724.28
2024-04-24T21:31:04.874Z,95788.28
2024-04-24T21:33:32.624Z,95788.19
2024-04-24T21:35:59.724Z,95713.28
2024-04-24T21:38:36.532Z,95781.47
2024-04-24T21:41:08.025Z,95787.75
2024-04-24T21:43:35.157Z,95778.63
2024-04-24T21:46:07.614Z,95776.59
2024-04-24T21:48:34.574Z,95789.25
2024-04-24T21:51:01.631Z,95794.84
2024-04-24T21:53:28.770Z,95793.94
2024-04-24T21:55:58.432Z,95802.22
2024-04-24T21:58:25.609Z,95809.38
2024-04-24T22:00:52.493Z,95719.69
2024-04-24T22:03:19.943Z,95808.47
2024-04-24T22:05:46.840Z,95804.47
2024-04-24T22:08:13.774Z,95774.81
2024-04-24T22:10:41.259Z,95743.91
2024-04-24T22:13:11.014Z,95797.19
2024-04-24T22:15:37.872Z,95799.84
2024-04-24T22:18:05.762Z,95732.84
2024-04-24T22:20:32.826Z,95735.47
2024-04-24T22:22:59.851Z,95800.41
2024-04-24T22:25:26.635Z,95774.28
2024-04-24T22:27:53.736Z,95804.69
2024-04-24T22:30:20.589Z,95803.47
2024-04-24T22:32:47.627Z,95813.78
2024-04-24T22:35:14.615Z,95799.56
2024-04-24T22:37:41.467Z,95747.94
2024-04-24T22:40:08.660Z,95802.22
2024-04-24T22:42:35.539Z,95790.88
2024-04-24T22:45:02.707Z,95758.34
2024-04-24T22:47:29.565Z,95801.03
2024-04-24T22:49:56.537Z,95807.66
2024-04-24T22:52:23.370Z,95803.66
2024-04-24T22:54:50.167Z,95805.63
2024-04-24T22:57:17.066Z,95803.69
2024-04-24T22:59:43.874Z,95805.97
2024-04-24T23:02:11.223Z,95793.94
2024-04-24T23:04:38.134Z,95795.75
2024-04-24T23:07:05.074Z,95793.59
2024-04-24T23:09:31.946Z,95767.16
2024-04-24T23:11:58.919Z,95746.56
2024-04-24T23:14:28.553Z,95794.25
2024-04-24T23:16:55.891Z,95794.69
2024-04-24T23:19:22.954Z,95787.75
2024-04-24T23:21:49.978Z,95782.34
2024-04-24T23:24:16.934Z,95794.75
2024-04-24T23:26:48.835Z,95790.50
2024-04-24T23:29:16.077Z,95787.56
2024-04-24T23:31:43.079Z,95791.84
2024-04-24T23:34:10.028Z,95778.75
2024-04-24T23:36:37.002Z,95764.69
2024-04-24T23:39:03.928Z,95751.50
2024-04-24T23:41:30.772Z,95769.59
2024-04-24T23:43:57.644Z,95768.53
2024-04-24T23:46:24.490Z,95735.09
2024-04-24T23:48:52.513Z,95768.31
2024-04-24T23:51:19.526Z,95761.09
2024-04-24T23:53:46.327Z,95770.53
2024-04-24T23:56:13.227Z,95739.41
2024-04-24T23:58:40.098Z,95771.41
